createdAt,value
2019-05-01T00:00:19.732Z,11.22
2019-05-01T00:03:05.887Z,11.21
2019-05-01T00:05:38.879Z,11.32
2019-05-01T00:08:08.469Z,11.29
2019-05-01T00:10:37.547Z,11.30
2019-05-01T00:13:06.418Z,11.28
2019-05-01T00:15:36.593Z,11.23
2019-05-01T00:18:05.472Z,11.23
2019-05-01T00:20:33.984Z,11.12
2019-05-01T00:23:02.468Z,10.79
2019-05-01T00:25:30.938Z,10.63
2019-05-01T00:27:59.541Z,10.31
2019-05-01T00:30:30.443Z,10.11
2019-05-01T00:32:59.129Z,10.33
2019-05-01T00:35:27.637Z,10.24
2019-05-01T00:37:56.105Z,10.17
2019-05-01T00:40:24.624Z,10.06
2019-05-01T00:42:53.080Z,10.15
2019-05-01T00:45:21.601Z,10.06
2019-05-01T00:47:50.070Z,10.12
2019-05-01T00:50:18.649Z,10.12
2019-05-01T00:52:47.097Z,10.16
2019-05-01T00:55:33.917Z,10.10
2019-05-01T00:58:13.049Z,10.25
2019-05-01T01:00:51.978Z,10.17
2019-05-01T01:03:20.482Z,10.22
2019-05-01T01:05:48.931Z,10.24
2019-05-01T01:08:17.463Z,10.17
2019-05-01T01:10:45.949Z,10.25
2019-05-01T01:13:14.666Z,10.28
2019-05-01T01:15:43.139Z,10.29
2019-05-01T01:18:11.653Z,10.19
2019-05-01T01:20:40.200Z,10.26
2019-05-01T01:23:08.865Z,10.40
2019-05-01T01:25:37.509Z,10.44
2019-05-01T01:28:06.083Z,10.42
2019-05-01T01:30:34.556Z,10.32
2019-05-01T01:33:03.142Z,10.39
2019-05-01T01:35:32.092Z,10.34
2019-05-01T01:38:00.570Z,10.34
2019-05-01T01:40:29.423Z,10.39
2019-05-01T01:43:00.145Z,10.43
2019-05-01T01:45:36.538Z,10.45
2019-05-01T01:48:15.346Z,10.41
2019-05-01T01:50:45.287Z,10.45
2019-05-01T01:53:16.249Z,10.45
2019-05-01T01:55:45.269Z,10.56
2019-05-01T01:58:14.261Z,10.49
2019-05-01T02:00:53.904Z,10.54
2019-05-01T02:03:24.054Z,10.71
2019-05-01T02:05:52.533Z,10.69
2019-05-01T02:08:21.121Z,10.67
2019-05-01T02:10:49.658Z,10.68
2019-05-01T02:13:18.175Z,10.78
2019-05-01T02:15:46.794Z,10.83
2019-05-01T02:18:15.444Z,10.83
2019-05-01T02:20:43.939Z,10.88
2019-05-01T02:23:12.588Z,11.13
2019-05-01T02:25:43.108Z,11.04
2019-05-01T02:28:23.088Z,11.07
2019-05-01T02:31:26.729Z,11.20
2019-05-01T02:33:42.291Z,11.20
2019-05-01T02:36:12.106Z,11.19
2019-05-01T02:38:41.973Z,11.28
2019-05-01T02:41:11.660Z,11.28
2019-05-01T02:43:42.034Z,11.29
2019-05-01T02:46:12.075Z,11.17
2019-05-01T02:48:43.733Z,11.09
2019-05-01T02:51:13.353Z,11.08
2019-05-01T02:53:43.757Z,11.05
2019-05-01T02:56:32.908Z,11.11
2019-05-01T02:59:03.224Z,11.07
2019-05-01T03:01:45.444Z,11.08
2019-05-01T03:04:02.353Z,10.99
2019-05-01T03:06:32.298Z,10.98
2019-05-01T03:09:01.569Z,11.01
2019-05-01T03:11:30.482Z,11.01
2019-05-01T03:14:00.590Z,11.04
2019-05-01T03:16:29.905Z,11.07
2019-05-01T03:19:00.327Z,11.11
2019-05-01T03:21:30.884Z,11.19
2019-05-01T03:24:17.050Z,11.22
2019-05-01T03:26:45.625Z,11.07
2019-05-01T03:29:14.368Z,11.16
2019-05-01T03:31:42.919Z,11.18
2019-05-01T03:34:11.509Z,11.19
2019-05-01T03:36:40.021Z,11.14
2019-05-01T03:39:08.531Z,11.03
2019-05-01T03:41:37.062Z,11.01
2019-05-01T03:44:05.784Z,11.02
2019-05-01T03:46:34.904Z,10.98
2019-05-01T03:49:04.223Z,11.06
2019-05-01T03:51:33.041Z,11.09
2019-05-01T03:54:02.503Z,11.07
2019-05-01T03:56:31.020Z,11.06
2019-05-01T03:59:00.072Z,11.10
2019-05-01T04:01:43.072Z,11.19
2019-05-01T04:04:16.673Z,11.04
2019-05-01T04:06:45.783Z,10.97
2019-05-01T04:09:14.313Z,11.03
2019-05-01T04:11:43.209Z,11.03
2019-05-01T04:14:12.182Z,11.03
2019-05-01T04:16:42.463Z,11.12
2019-05-01T04:19:11.598Z,11.15
2019-05-01T04:21:42.104Z,11.13
2019-05-01T04:24:10.624Z,11.01
2019-05-01T04:26:39.171Z,11.04
2019-05-01T04:29:09.316Z,11.11
2019-05-01T04:31:39.550Z,11.15
2019-05-01T04:34:13.352Z,11.12
2019-05-01T04:36:43.553Z,11.18
2019-05-01T04:39:12.301Z,11.32
2019-05-01T04:41:41.049Z,11.26
2019-05-01T04:44:09.699Z,11.31
2019-05-01T04:46:38.362Z,11.19
2019-05-01T04:49:07.123Z,11.28
2019-05-01T04:51:36.003Z,11.17
2019-05-01T04:54:04.836Z,11.29
2019-05-01T04:56:33.630Z,11.26
2019-05-01T04:59:02.147Z,11.14
2019-05-01T05:01:32.409Z,11.15
2019-05-01T05:04:01.163Z,11.02
2019-05-01T05:06:29.710Z,11.00
2019-05-01T05:08:58.162Z,10.84
2019-05-01T05:11:28.392Z,10.80
2019-05-01T05:14:07.374Z,10.91
2019-05-01T05:16:46.513Z,10.91
2019-05-01T05:19:15.474Z,10.91
2019-05-01T05:21:43.974Z,10.85
2019-05-01T05:24:12.465Z,10.59
2019-05-01T05:26:41.999Z,10.76
2019-05-01T05:29:11.709Z,10.87
2019-05-01T05:31:41.749Z,11.01
2019-05-01T05:34:11.816Z,11.04
2019-05-01T05:36:41.358Z,11.12
2019-05-01T05:39:14.641Z,11.20
2019-05-01T05:41:44.068Z,11.34
2019-05-01T05:44:12.989Z,11.34
2019-05-01T05:46:41.792Z,11.44
2019-05-01T05:49:10.310Z,11.40
2019-05-01T05:51:46.464Z,11.48
2019-05-01T05:54:33.049Z,11.44
2019-05-01T05:57:15.310Z,11.28
2019-05-01T05:59:47.302Z,11.37
2019-05-01T06:02:28.745Z,11.45
2019-05-01T06:05:19.034Z,11.32
2019-05-01T06:07:49.950Z,11.28
2019-05-01T06:10:23.120Z,11.35
2019-05-01T06:13:11.158Z,11.40
2019-05-01T06:15:49.119Z,11.22
2019-05-01T06:18:25.009Z,11.25
2019-05-01T06:21:12.839Z,11.12
2019-05-01T06:23:43.057Z,10.98
2019-05-01T06:26:32.110Z,11.28
2019-05-01T06:29:00.851Z,11.35
2019-05-01T06:31:28.848Z,11.68
2019-05-01T06:33:57.522Z,11.44
2019-05-01T06:36:26.079Z,11.73
2019-05-01T06:38:54.848Z,11.63
2019-05-01T06:41:23.760Z,11.64
2019-05-01T06:43:56.999Z,12.07
2019-05-01T06:46:29.062Z,11.93
2019-05-01T06:49:15.725Z,11.99
2019-05-01T06:51:48.070Z,11.93
2019-05-01T06:54:17.768Z,11.92
2019-05-01T06:56:47.213Z,11.63
2019-05-01T06:59:16.709Z,11.55
2019-05-01T07:01:45.995Z,11.57
2019-05-01T07:04:15.104Z,11.36
2019-05-01T07:06:43.830Z,11.30
2019-05-01T07:09:21.304Z,11.07
2019-05-01T07:11:47.535Z,11.18
2019-05-01T07:14:16.494Z,11.34
2019-05-01T07:16:44.302Z,11.74
2019-05-01T07:19:13.708Z,11.85
2019-05-01T07:21:42.628Z,12.14
2019-05-01T07:24:11.186Z,11.83
2019-05-01T07:26:43.951Z,12.21
2019-05-01T07:29:11.534Z,11.81
2019-05-01T07:31:40.245Z,12.09
2019-05-01T07:34:16.284Z,12.44
2019-05-01T07:36:39.012Z,12.39
2019-05-01T07:39:09.889Z,12.04
2019-05-01T07:41:38.998Z,12.25
2019-05-01T07:44:09.448Z,12.18
2019-05-01T07:46:56.247Z,12.29
2019-05-01T07:49:52.751Z,12.04
2019-05-01T07:52:18.769Z,12.12
2019-05-01T07:54:48.896Z,12.22
2019-05-01T07:57:17.444Z,11.88
2019-05-01T07:59:46.012Z,11.92
2019-05-01T08:02:14.879Z,12.08
2019-05-01T08:04:43.360Z,12.04
2019-05-01T08:07:11.927Z,12.20
2019-05-01T08:09:40.443Z,12.32
2019-05-01T08:12:09.014Z,12.19
2019-05-01T08:14:37.494Z,12.79
2019-05-01T08:17:06.036Z,13.11
2019-05-01T08:19:39.464Z,12.94
2019-05-01T08:22:16.791Z,12.94
2019-05-01T08:24:45.395Z,12.48
2019-05-01T08:27:24.432Z,12.50
2019-05-01T08:29:54.744Z,12.58
2019-05-01T08:32:27.539Z,13.27
2019-05-01T08:35:00.418Z,12.87
2019-05-01T08:37:27.955Z,13.29
2019-05-01T08:39:56.438Z,13.14
2019-05-01T08:42:25.034Z,13.51
2019-05-01T08:45:05.357Z,13.74
2019-05-01T08:47:39.568Z,14.03
2019-05-01T08:50:13.301Z,14.17
2019-05-01T08:52:42.768Z,14.37
2019-05-01T08:55:12.066Z,13.93
2019-05-01T08:57:40.561Z,14.43
2019-05-01T09:00:09.784Z,14.37
2019-05-01T09:02:41.747Z,14.78
2019-05-01T09:05:26.958Z,14.88
2019-05-01T09:07:39.303Z,14.70
2019-05-01T09:10:09.274Z,14.09
2019-05-01T09:12:38.124Z,13.88
2019-05-01T09:15:12.706Z,13.94
2019-05-01T09:17:37.979Z,14.32
2019-05-01T09:20:06.599Z,14.24
2019-05-01T09:22:35.201Z,14.47
2019-05-01T09:25:04.301Z,14.73
2019-05-01T09:27:49.688Z,14.53
2019-05-01T09:30:29.035Z,14.83
2019-05-01T09:32:57.579Z,15.06
2019-05-01T09:35:26.060Z,14.74
2019-05-01T09:37:54.666Z,15.16
2019-05-01T09:40:23.129Z,15.11
2019-05-01T09:42:54.595Z,15.55
2019-05-01T09:45:21.873Z,15.30
2019-05-01T09:47:50.711Z,15.57
2019-05-01T09:50:19.232Z,15.19
2019-05-01T09:52:59.646Z,15.12
2019-05-01T09:55:32.976Z,15.67
2019-05-01T09:58:02.874Z,15.44
2019-05-01T10:00:32.918Z,15.18
2019-05-01T10:03:01.400Z,14.86
2019-05-01T10:05:29.877Z,15.08
2019-05-01T10:08:03.965Z,15.02
2019-05-01T10:10:30.666Z,15.19
2019-05-01T10:12:59.425Z,15.24
2019-05-01T10:15:28.031Z,15.62
2019-05-01T10:17:56.552Z,15.11
2019-05-01T10:20:25.022Z,15.07
2019-05-01T10:22:53.537Z,15.03
2019-05-01T10:25:21.996Z,15.87
2019-05-01T10:27:55.144Z,15.91
2019-05-01T10:30:25.325Z,16.00
2019-05-01T10:32:59.719Z,16.16
2019-05-01T10:35:42.452Z,16.55
2019-05-01T10:38:04.676Z,16.17
2019-05-01T10:40:34.324Z,16.57
2019-05-01T10:43:02.945Z,16.22
2019-05-01T10:45:31.465Z,16.93
2019-05-01T10:48:00.023Z,17.67
2019-05-01T10:50:28.477Z,17.34
2019-05-01T10:52:57.013Z,18.00
2019-05-01T10:55:25.707Z,18.42
2019-05-01T10:57:54.225Z,19.49
2019-05-01T11:00:22.817Z,18.78
2019-05-01T11:02:51.351Z,17.68
2019-05-01T11:05:19.880Z,18.22
2019-05-01T11:07:48.496Z,19.16
2019-05-01T11:10:18.483Z,18.90
2019-05-01T11:12:46.984Z,19.72
2019-05-01T11:15:16.098Z,20.02
2019-05-01T11:17:44.627Z,20.19
2019-05-01T11:20:13.376Z,20.84
2019-05-01T11:22:41.974Z,19.84
2019-05-01T11:25:10.770Z,20.65
2019-05-01T11:27:39.321Z,20.39
2019-05-01T11:30:08.385Z,20.30
2019-05-01T11:32:54.732Z,20.14
2019-05-01T11:35:39.919Z,20.43
2019-05-01T11:38:26.222Z,20.37
2019-05-01T11:40:59.349Z,20.59
2019-05-01T11:43:27.864Z,22.08
2019-05-01T11:45:56.378Z,21.64
2019-05-01T11:48:30.303Z,21.99
2019-05-01T11:50:55.445Z,22.47
2019-05-01T11:53:23.990Z,22.85
2019-05-01T11:55:52.535Z,21.23
2019-05-01T11:58:21.996Z,22.58
2019-05-01T12:00:52.135Z,23.38
2019-05-01T12:03:20.660Z,22.74
2019-05-01T12:05:49.905Z,23.12
2019-05-01T12:08:18.444Z,21.70
2019-05-01T12:10:46.977Z,21.64
2019-05-01T12:13:15.491Z,21.86
2019-05-01T12:15:47.634Z,21.77
2019-05-01T12:18:16.306Z,23.29
2019-05-01T12:20:44.793Z,23.37
2019-05-01T12:23:13.387Z,24.23
2019-05-01T12:25:41.836Z,23.34
2019-05-01T12:28:10.361Z,22.63
2019-05-01T12:30:39.215Z,22.68
2019-05-01T12:33:07.763Z,24.32
2019-05-01T12:35:36.252Z,21.10
2019-05-01T12:38:05.150Z,23.38
2019-05-01T12:40:33.614Z,22.98
2019-05-01T12:43:02.819Z,23.74
2019-05-01T12:45:31.454Z,25.33
2019-05-01T12:48:01.198Z,23.10
2019-05-01T12:50:29.755Z,23.01
2019-05-01T12:53:00.002Z,21.41
2019-05-01T12:55:31.872Z,20.37
2019-05-01T12:58:00.392Z,21.67
2019-05-01T13:00:48.041Z,22.65
2019-05-01T13:03:16.599Z,20.88
2019-05-01T13:05:45.073Z,22.05
2019-05-01T13:08:13.564Z,25.68
2019-05-01T13:10:42.201Z,25.34
2019-05-01T13:13:11.348Z,26.12
2019-05-01T13:15:39.982Z,24.16
2019-05-01T13:18:09.261Z,25.17
2019-05-01T13:20:37.801Z,25.07
2019-05-01T13:23:06.433Z,27.02
2019-05-01T13:25:34.946Z,26.12
2019-05-01T13:31:06.437Z,27.48
2019-05-01T13:33:35.033Z,27.98
2019-05-01T13:36:03.459Z,27.46
2019-05-01T13:38:34.293Z,28.14
2019-05-01T13:41:03.965Z,25.10
2019-05-01T13:43:32.478Z,27.29
2019-05-01T13:46:00.984Z,27.56
2019-05-01T13:48:29.722Z,23.35
2019-05-01T13:50:58.231Z,22.47
2019-05-01T13:53:26.745Z,26.75
2019-05-01T13:55:55.247Z,27.77
2019-05-01T13:58:23.705Z,27.58
2019-05-01T14:00:52.147Z,27.39
2019-05-01T14:03:20.683Z,28.93
2019-05-01T14:05:49.135Z,25.36
2019-05-01T14:08:17.654Z,28.94
2019-05-01T14:10:46.191Z,27.51
2019-05-01T14:13:15.087Z,24.73
2019-05-01T14:15:43.550Z,22.23
2019-05-01T14:18:12.148Z,21.06
2019-05-01T14:20:58.209Z,22.36
2019-05-01T14:23:43.407Z,21.28
2019-05-01T14:26:11.929Z,19.94
2019-05-01T14:28:40.390Z,20.00
2019-05-01T14:31:08.954Z,19.86
2019-05-01T14:33:37.429Z,19.60
2019-05-01T14:36:06.092Z,19.67
2019-05-01T14:38:34.908Z,20.02
2019-05-01T14:41:03.460Z,19.92
2019-05-01T14:43:31.946Z,20.51
2019-05-01T14:46:00.445Z,20.32
2019-05-01T14:48:29.004Z,20.21
2019-05-01T14:50:57.494Z,20.46
2019-05-01T14:53:26.006Z,19.43
2019-05-01T14:55:54.537Z,19.23
2019-05-01T14:58:23.145Z,18.92
2019-05-01T15:00:51.608Z,18.65
2019-05-01T15:03:20.103Z,19.27
2019-05-01T15:05:48.576Z,19.62
2019-05-01T15:08:17.071Z,19.17
2019-05-01T15:10:45.663Z,18.61
2019-05-01T15:13:32.722Z,18.86
2019-05-01T15:16:20.540Z,18.71
2019-05-01T15:19:05.732Z,18.42
2019-05-01T15:21:34.478Z,18.10
2019-05-01T15:24:03.337Z,18.05
2019-05-01T15:26:31.953Z,18.12
2019-05-01T15:29:00.618Z,18.13
2019-05-01T15:31:29.367Z,18.18
2019-05-01T15:33:57.857Z,18.05
2019-05-01T15:36:26.400Z,18.39
2019-05-01T15:38:55.330Z,18.69
2019-05-01T15:41:40.831Z,18.68
2019-05-01T15:44:22.703Z,18.69
2019-05-01T15:46:51.206Z,18.85
2019-05-01T15:49:19.684Z,18.89
2019-05-01T15:51:48.325Z,18.35
2019-05-01T15:54:16.882Z,18.47
2019-05-01T15:56:45.461Z,18.06
2019-05-01T15:59:13.967Z,18.02
2019-05-01T16:01:42.461Z,17.96
2019-05-01T16:04:10.909Z,17.85
2019-05-01T16:06:39.711Z,17.67
2019-05-01T16:09:08.742Z,17.58
2019-05-01T16:11:41.840Z,17.75
2019-05-01T16:14:10.632Z,18.11
2019-05-01T16:16:39.226Z,17.91
2019-05-01T16:19:08.239Z,17.91
2019-05-01T16:21:36.683Z,17.97
2019-05-01T16:24:05.168Z,18.07
2019-05-01T16:26:33.721Z,17.98
2019-05-01T16:29:02.277Z,18.06
2019-05-01T16:31:30.760Z,18.02
2019-05-01T16:33:59.347Z,17.87
2019-05-01T16:36:28.011Z,17.81
2019-05-01T16:39:01.001Z,17.58
2019-05-01T16:41:31.272Z,17.75
2019-05-01T16:43:59.709Z,17.55
2019-05-01T16:46:28.275Z,17.57
2019-05-01T16:48:56.712Z,17.52
2019-05-01T16:51:25.330Z,17.31
2019-05-01T16:53:53.830Z,17.25
2019-05-01T16:56:22.471Z,17.40
2019-05-01T16:58:50.822Z,17.71
2019-05-01T17:01:29.926Z,17.62
2019-05-01T17:04:02.797Z,17.47
2019-05-01T17:06:33.045Z,17.44
2019-05-01T17:09:19.511Z,17.53
2019-05-01T17:11:48.068Z,17.32
2019-05-01T17:14:16.886Z,16.99
2019-05-01T17:16:45.430Z,16.80
2019-05-01T17:19:13.862Z,16.68
2019-05-01T17:21:42.382Z,16.77
2019-05-01T17:24:10.954Z,16.59
2019-05-01T17:26:39.510Z,16.56
2019-05-01T17:29:08.068Z,16.46
2019-05-01T17:31:36.956Z,16.47
2019-05-01T17:34:05.513Z,16.29
2019-05-01T17:36:34.069Z,16.11
2019-05-01T17:39:03.795Z,16.19
2019-05-01T17:41:32.344Z,15.98
2019-05-01T17:44:00.843Z,15.95
2019-05-01T17:46:29.337Z,15.89
2019-05-01T17:48:57.911Z,15.82
2019-05-01T17:51:26.419Z,15.79
2019-05-01T17:53:54.863Z,15.76
2019-05-01T17:56:28.411Z,15.60
2019-05-01T17:58:54.036Z,15.73
2019-05-01T18:01:32.580Z,15.44
2019-05-01T18:04:00.235Z,15.32
2019-05-01T18:06:30.320Z,15.32
2019-05-01T18:09:03.326Z,15.25
2019-05-01T18:11:28.973Z,15.09
2019-05-01T18:13:57.460Z,15.25
2019-05-01T18:16:26.119Z,15.12
2019-05-01T18:18:54.607Z,15.11
2019-05-01T18:21:23.370Z,14.95
2019-05-01T18:23:53.546Z,14.84
2019-05-01T18:26:43.451Z,14.88
2019-05-01T18:29:14.570Z,14.76
2019-05-01T18:31:43.342Z,14.83
2019-05-01T18:34:11.828Z,14.62
2019-05-01T18:36:59.890Z,14.54
2019-05-01T18:39:37.695Z,14.40
2019-05-01T18:42:11.094Z,14.22
2019-05-01T18:44:42.583Z,14.33
2019-05-01T18:47:10.859Z,14.43
2019-05-01T18:49:39.476Z,14.30
2019-05-01T18:52:09.413Z,14.14
2019-05-01T18:54:38.259Z,14.03
2019-05-01T18:57:07.272Z,13.96
2019-05-01T18:59:35.830Z,13.92
2019-05-01T19:02:04.497Z,13.92
2019-05-01T19:04:33.425Z,13.96
2019-05-01T19:07:02.009Z,13.80
2019-05-01T19:09:30.925Z,13.68
2019-05-01T19:11:59.452Z,13.58
2019-05-01T19:14:30.665Z,13.58
2019-05-01T19:16:59.306Z,13.46
2019-05-01T19:19:28.058Z,13.49
2019-05-01T19:21:56.534Z,13.34
2019-05-01T19:24:25.345Z,13.28
2019-05-01T19:26:53.806Z,13.26
2019-05-01T19:29:26.622Z,13.09
2019-05-01T19:31:52.638Z,13.05
2019-05-01T19:34:21.299Z,13.11
2019-05-01T19:36:51.505Z,13.03
2019-05-01T19:39:19.962Z,13.05
2019-05-01T19:41:49.341Z,13.14
2019-05-01T19:44:20.089Z,13.05
2019-05-01T19:46:48.684Z,12.97
2019-05-01T19:49:17.400Z,12.97
2019-05-01T19:51:45.962Z,12.85
2019-05-01T19:54:14.590Z,12.80
2019-05-01T19:56:43.191Z,12.76
2019-05-01T19:59:11.723Z,12.66
2019-05-01T20:01:44.621Z,12.66
2019-05-01T20:04:13.242Z,12.61
2019-05-01T20:06:40.815Z,12.49
2019-05-01T20:09:09.740Z,12.27
2019-05-01T20:11:38.480Z,12.22
2019-05-01T20:14:07.057Z,12.23
2019-05-01T20:16:35.561Z,12.14
2019-05-01T20:19:04.161Z,12.00
2019-05-01T20:21:32.938Z,11.93
2019-05-01T20:24:04.488Z,11.80
2019-05-01T20:26:33.870Z,11.71
2019-05-01T20:29:02.042Z,11.57
2019-05-01T20:31:32.868Z,11.58
2019-05-01T20:34:01.163Z,11.46
2019-05-01T20:36:29.678Z,11.44
2019-05-01T20:38:58.183Z,11.38
2019-05-01T20:41:26.834Z,11.36
2019-05-01T20:43:55.359Z,11.25
2019-05-01T20:46:26.116Z,11.29
2019-05-01T20:48:55.945Z,11.18
2019-05-01T20:51:24.231Z,11.08
2019-05-01T20:53:52.740Z,10.97
2019-05-01T20:56:22.863Z,11.05
2019-05-01T20:58:51.428Z,11.01
2019-05-01T21:01:24.270Z,10.98
2019-05-01T21:03:52.554Z,10.90
2019-05-01T21:06:23.843Z,10.82
2019-05-01T21:08:54.005Z,10.69
2019-05-01T21:11:24.145Z,10.55
2019-05-01T21:13:56.604Z,10.45
2019-05-01T21:16:23.095Z,10.42
2019-05-01T21:18:51.612Z,10.49
2019-05-01T21:21:20.063Z,10.43
2019-05-01T21:23:53.326Z,10.34
2019-05-01T21:26:18.721Z,10.41
2019-05-01T21:28:47.270Z,10.41
2019-05-01T21:31:15.825Z,10.28
2019-05-01T21:33:46.276Z,10.25
2019-05-01T21:36:14.590Z,10.23
2019-05-01T21:38:43.372Z,10.19
2019-05-01T21:41:11.853Z,10.23
2019-05-01T21:43:42.382Z,10.23
2019-05-01T21:46:12.464Z,10.26
2019-05-01T21:48:41.079Z,10.26
2019-05-01T21:51:09.524Z,10.26
2019-05-01T21:53:42.820Z,10.32
2019-05-01T21:56:08.237Z,10.27
2019-05-01T21:58:36.731Z,10.23
2019-05-01T22:01:06.360Z,10.22
2019-05-01T22:03:34.905Z,10.24
2019-05-01T22:06:03.350Z,10.25
2019-05-01T22:08:34.468Z,10.15
2019-05-01T22:11:03.625Z,10.24
2019-05-01T22:13:32.389Z,10.25
2019-05-01T22:16:05.173Z,10.21
2019-05-01T22:18:37.850Z,10.26
2019-05-01T22:21:13.954Z,10.22
2019-05-01T22:23:59.150Z,10.14
2019-05-01T22:26:29.421Z,10.16
2019-05-01T22:28:59.631Z,10.07
2019-05-01T22:31:46.098Z,10.09
2019-05-01T22:34:16.252Z,9.93
2019-05-01T22:36:44.700Z,9.98
2019-05-01T22:39:13.517Z,9.90
2019-05-01T22:41:41.955Z,9.85
2019-05-01T22:44:12.743Z,9.84
2019-05-01T22:46:40.818Z,9.81
2019-05-01T22:49:09.677Z,9.69
2019-05-01T22:51:38.138Z,9.79
2019-05-01T22:54:06.648Z,9.76
2019-05-01T22:56:35.098Z,9.86
2019-05-01T22:59:04.369Z,9.74
2019-05-01T23:01:33.005Z,9.68
2019-05-01T23:04:03.218Z,9.62
2019-05-01T23:06:31.664Z,9.47
2019-05-01T23:09:00.208Z,9.57
2019-05-01T23:11:30.317Z,9.64
2019-05-01T23:13:58.813Z,9.46
2019-05-01T23:16:30.077Z,9.45
2019-05-01T23:18:58.700Z,9.37
2019-05-01T23:21:27.139Z,9.25
2019-05-01T23:23:56.803Z,9.26
2019-05-01T23:26:25.883Z,9.18
2019-05-01T23:28:54.392Z,9.07
2019-05-01T23:31:22.928Z,8.98
2019-05-01T23:33:51.894Z,8.92
2019-05-01T23:36:23.593Z,9.02
2019-05-01T23:38:50.819Z,9.15
2019-05-01T23:41:24.864Z,9.10
2019-05-01T23:43:49.478Z,9.15
2019-05-01T23:46:17.954Z,9.03
2019-05-01T23:48:46.444Z,9.03
2019-05-01T23:51:14.920Z,8.97
2019-05-01T23:53:44.346Z,8.96
2019-05-01T23:56:13.670Z,8.73
2019-05-01T23:58:42.173Z,8.91
